sensor_id;sensor_type;location;lat;lon;timestamp;temperature;humidity
52415;DHT22;38340;52.964;6.086;2022-09-13T00:00:34;17.50;99.90
52415;DHT22;38340;52.964;6.086;2022-09-13T00:03:00;17.60;99.90
52415;DHT22;38340;52.964;6.086;2022-09-13T00:05:26;17.40;99.90
52415;DHT22;38340;52.964;6.086;2022-09-13T00:07:52;17.40;99.90
52415;DHT22;38340;52.964;6.086;2022-09-13T00:10:18;17.50;99.90
52415;DHT22;38340;52.964;6.086;2022-09-13T00:12:44;17.60;99.90
52415;DHT22;38340;52.964;6.086;2022-09-13T00:15:10;17.50;99.90
52415;DHT22;38340;52.964;6.086;2022-09-13T00:17:36;17.60;99.90
52415;DHT22;38340;52.964;6.086;2022-09-13T00:20:02;17.50;99.90
52415;DHT22;38340;52.964;6.086;2022-09-13T00:22:28;17.50;99.90
52415;DHT22;38340;52.964;6.086;2022-09-13T00:24:54;17.60;99.90
52415;DHT22;38340;52.964;6.086;2022-09-13T00:27:19;17.40;99.90
52415;DHT22;38340;52.964;6.086;2022-09-13T00:29:45;17.50;99.90
52415;DHT22;38340;52.964;6.086;2022-09-13T00:32:11;17.40;99.90
52415;DHT22;38340;52.964;6.086;2022-09-13T00:34:37;17.50;99.90
52415;DHT22;38340;52.964;6.086;2022-09-13T00:37:03;17.50;99.90
52415;DHT22;38340;52.964;6.086;2022-09-13T00:39:28;17.50;99.90
52415;DHT22;38340;52.964;6.086;2022-09-13T00:41:54;17.40;99.90
52415;DHT22;38340;52.964;6.086;2022-09-13T00:44:58;17.50;99.90
52415;DHT22;38340;52.964;6.086;2022-09-13T00:47:48;17.60;99.90
52415;DHT22;38340;52.964;6.086;2022-09-13T00:50:32;17.50;99.90
52415;DHT22;38340;52.964;6.086;2022-09-13T00:53:26;17.50;99.90
52415;DHT22;38340;52.964;6.086;2022-09-13T00:58:51;17.50;99.90
52415;DHT22;38340;52.964;6.086;2022-09-13T01:01:22;17.50;99.90
52415;DHT22;38340;52.964;6.086;2022-09-13T01:03:50;17.50;99.90
52415;DHT22;38340;52.964;6.086;2022-09-13T01:06:24;17.50;99.90
52415;DHT22;38340;52.964;6.086;2022-09-13T01:08:54;17.40;99.90
52415;DHT22;38340;52.964;6.086;2022-09-13T01:11:49;17.40;99.90
52415;DHT22;38340;52.964;6.086;2022-09-13T01:35:44;17.40;99.90
52415;DHT22;38340;52.964;6.086;2022-09-13T01:45:55;17.40;99.90
52415;DHT22;38340;52.964;6.086;2022-09-13T01:51:32;17.40;99.90
52415;DHT22;38340;52.964;6.086;2022-09-13T01:54:10;17.40;99.90
52415;DHT22;38340;52.964;6.086;2022-09-13T01:56:48;17.50;99.90
52415;DHT22;38340;52.964;6.086;2022-09-13T02:02:02;17.40;99.90
52415;DHT22;38340;52.964;6.086;2022-09-13T02:04:39;17.40;99.90
52415;DHT22;38340;52.964;6.086;2022-09-13T02:07:21;17.40;99.90
52415;DHT22;38340;52.964;6.086;2022-09-13T02:09:58;17.40;99.90
52415;DHT22;38340;52.964;6.086;2022-09-13T02:12:25;17.50;99.90
52415;DHT22;38340;52.964;6.086;2022-09-13T02:15:13;17.40;99.90
52415;DHT22;38340;52.964;6.086;2022-09-13T02:17:48;17.50;99.90
52415;DHT22;38340;52.964;6.086;2022-09-13T02:22:48;17.40;99.90
52415;DHT22;38340;52.964;6.086;2022-09-13T02:25:18;17.40;99.90
52415;DHT22;38340;52.964;6.086;2022-09-13T02:27:48;17.40;99.90
52415;DHT22;38340;52.964;6.086;2022-09-13T02:30:17;17.50;99.90
52415;DHT22;38340;52.964;6.086;2022-09-13T02:32:49;17.50;99.90
52415;DHT22;38340;52.964;6.086;2022-09-13T02:35:30;17.40;99.90
52415;DHT22;38340;52.964;6.086;2022-09-13T02:38:01;17.40;99.90
52415;DHT22;38340;52.964;6.086;2022-09-13T02:40:33;17.50;99.90
52415;DHT22;38340;52.964;6.086;2022-09-13T02:43:27;17.50;99.90
52415;DHT22;38340;52.964;6.086;2022-09-13T02:46:06;17.60;99.90
52415;DHT22;38340;52.964;6.086;2022-09-13T02:48:59;17.60;99.90
52415;DHT22;38340;52.964;6.086;2022-09-13T02:51:50;17.60;99.90
52415;DHT22;38340;52.964;6.086;2022-09-13T02:54:35;17.60;99.90
52415;DHT22;38340;52.964;6.086;2022-09-13T02:57:07;17.60;99.90
52415;DHT22;38340;52.964;6.086;2022-09-13T02:59:37;17.70;99.90
52415;DHT22;38340;52.964;6.086;2022-09-13T03:02:09;17.60;99.90
52415;DHT22;38340;52.964;6.086;2022-09-13T03:04:36;17.60;99.90
52415;DHT22;38340;52.964;6.086;2022-09-13T03:07:02;17.60;99.90
52415;DHT22;38340;52.964;6.086;2022-09-13T03:09:32;17.70;99.90
52415;DHT22;38340;52.964;6.086;2022-09-13T03:12:33;17.70;99.90
52415;DHT22;38340;52.964;6.086;2022-09-13T03:18:16;17.80;99.90
52415;DHT22;38340;52.964;6.086;2022-09-13T03:21:06;17.70;99.90
52415;DHT22;38340;52.964;6.086;2022-09-13T03:26:25;17.60;99.90
52415;DHT22;38340;52.964;6.086;2022-09-13T03:39:56;17.70;99.90
52415;DHT22;38340;52.964;6.086;2022-09-13T03:44:49;17.80;99.90
52415;DHT22;38340;52.964;6.086;2022-09-13T03:47:17;17.80;99.90
52415;DHT22;38340;52.964;6.086;2022-09-13T03:49:43;17.80;99.90
52415;DHT22;38340;52.964;6.086;2022-09-13T03:52:10;17.60;99.90
52415;DHT22;38340;52.964;6.086;2022-09-13T03:54:37;17.60;99.90
52415;DHT22;38340;52.964;6.086;2022-09-13T03:57:15;17.50;99.90
52415;DHT22;38340;52.964;6.086;2022-09-13T03:59:46;17.30;99.90
52415;DHT22;38340;52.964;6.086;2022-09-13T04:02:14;17.40;99.90
52415;DHT22;38340;52.964;6.086;2022-09-13T04:04:41;17.30;99.90
52415;DHT22;38340;52.964;6.086;2022-09-13T04:07:09;17.30;99.90
52415;DHT22;38340;52.964;6.086;2022-09-13T04:09:35;17.40;99.90
52415;DHT22;38340;52.964;6.086;2022-09-13T04:12:01;17.30;99.90
52415;DHT22;38340;52.964;6.086;2022-09-13T04:14:27;17.40;99.90
52415;DHT22;38340;52.964;6.086;2022-09-13T04:16:53;17.20;99.90
52415;DHT22;38340;52.964;6.086;2022-09-13T04:19:20;17.30;99.90
52415;DHT22;38340;52.964;6.086;2022-09-13T04:21:49;17.30;99.90
52415;DHT22;38340;52.964;6.086;2022-09-13T04:24:16;17.30;99.90
52415;DHT22;38340;52.964;6.086;2022-09-13T04:26:43;17.40;99.90
52415;DHT22;38340;52.964;6.086;2022-09-13T04:29:09;17.20;99.90
52415;DHT22;38340;52.964;6.086;2022-09-13T04:31:36;17.20;99.90
52415;DHT22;38340;52.964;6.086;2022-09-13T04:34:02;17.20;99.90
52415;DHT22;38340;52.964;6.086;2022-09-13T04:36:28;17.20;99.90
52415;DHT22;38340;52.964;6.086;2022-09-13T04:38:53;17.20;99.90
52415;DHT22;38340;52.964;6.086;2022-09-13T04:41:19;17.20;99.90
52415;DHT22;38340;52.964;6.086;2022-09-13T04:43:49;17.20;99.90
52415;DHT22;38340;52.964;6.086;2022-09-13T04:46:15;17.20;99.90
52415;DHT22;38340;52.964;6.086;2022-09-13T04:48:41;17.10;99.90
52415;DHT22;38340;52.964;6.086;2022-09-13T04:51:07;17.10;99.90
52415;DHT22;38340;52.964;6.086;2022-09-13T04:53:33;17.10;99.90
52415;DHT22;38340;52.964;6.086;2022-09-13T04:56:02;17.20;99.90
52415;DHT22;38340;52.964;6.086;2022-09-13T04:58:29;17.30;99.90
52415;DHT22;38340;52.964;6.086;2022-09-13T05:01:03;17.10;99.90
52415;DHT22;38340;52.964;6.086;2022-09-13T05:03:32;17.30;99.90
52415;DHT22;38340;52.964;6.086;2022-09-13T05:06:07;17.10;99.90
52415;DHT22;38340;52.964;6.086;2022-09-13T05:08:33;17.20;99.90
52415;DHT22;38340;52.964;6.086;2022-09-13T05:10:59;17.20;99.90
52415;DHT22;38340;52.964;6.086;2022-09-13T05:13:26;17.20;99.90
52415;DHT22;38340;52.964;6.086;2022-09-13T05:15:59;17.10;99.90
52415;DHT22;38340;52.964;6.086;2022-09-13T05:18:26;17.20;99.90
52415;DHT22;38340;52.964;6.086;2022-09-13T05:20:56;17.10;99.90
52415;DHT22;38340;52.964;6.086;2022-09-13T05:23:22;17.10;99.90
52415;DHT22;38340;52.964;6.086;2022-09-13T05:26:02;17.00;99.90
52415;DHT22;38340;52.964;6.086;2022-09-13T05:28:31;17.10;99.90
52415;DHT22;38340;52.964;6.086;2022-09-13T05:30:58;17.20;99.90
52415;DHT22;38340;52.964;6.086;2022-09-13T05:33:29;17.20;99.90
52415;DHT22;38340;52.964;6.086;2022-09-13T05:35:56;17.00;99.90
52415;DHT22;38340;52.964;6.086;2022-09-13T05:38:22;17.10;99.90
52415;DHT22;38340;52.964;6.086;2022-09-13T05:40:56;17.20;99.90
52415;DHT22;38340;52.964;6.086;2022-09-13T05:43:23;17.20;99.90
52415;DHT22;38340;52.964;6.086;2022-09-13T05:45:49;17.00;99.90
52415;DHT22;38340;52.964;6.086;2022-09-13T05:48:14;17.00;99.90
52415;DHT22;38340;52.964;6.086;2022-09-13T05:50:40;17.00;99.90
52415;DHT22;38340;52.964;6.086;2022-09-13T05:53:06;17.20;99.90
52415;DHT22;38340;52.964;6.086;2022-09-13T05:55:32;17.20;99.90
52415;DHT22;38340;52.964;6.086;2022-09-13T05:57:59;17.10;99.90
52415;DHT22;38340;52.964;6.086;2022-09-13T06:00:25;17.20;99.90
52415;DHT22;38340;52.964;6.086;2022-09-13T06:02:51;17.10;99.90
52415;DHT22;38340;52.964;6.086;2022-09-13T06:05:17;17.20;99.90
52415;DHT22;38340;52.964;6.086;2022-09-13T06:07:42;17.10;99.90
52415;DHT22;38340;52.964;6.086;2022-09-13T06:10:09;17.10;99.90
52415;DHT22;38340;52.964;6.086;2022-09-13T06:12:35;17.10;99.90
52415;DHT22;38340;52.964;6.086;2022-09-13T06:15:02;17.20;99.90
52415;DHT22;38340;52.964;6.086;2022-09-13T06:17:27;17.20;99.90
52415;DHT22;38340;52.964;6.086;2022-09-13T06:19:53;17.10;99.90
52415;DHT22;38340;52.964;6.086;2022-09-13T06:22:19;17.10;99.90
52415;DHT22;38340;52.964;6.086;2022-09-13T06:24:44;17.00;99.90
52415;DHT22;38340;52.964;6.086;2022-09-13T06:27:10;17.10;99.90
52415;DHT22;38340;52.964;6.086;2022-09-13T06:29:36;17.10;99.90
52415;DHT22;38340;52.964;6.086;2022-09-13T06:32:02;17.30;99.90
52415;DHT22;38340;52.964;6.086;2022-09-13T06:34:28;17.10;99.90
52415;DHT22;38340;52.964;6.086;2022-09-13T06:36:54;17.10;99.90
52415;DHT22;38340;52.964;6.086;2022-09-13T06:39:19;17.20;99.90
52415;DHT22;38340;52.964;6.086;2022-09-13T06:41:45;17.40;99.90
52415;DHT22;38340;52.964;6.086;2022-09-13T06:44:11;17.40;99.90
52415;DHT22;38340;52.964;6.086;2022-09-13T06:46:37;17.40;99.90
52415;DHT22;38340;52.964;6.086;2022-09-13T06:49:05;17.40;99.90
52415;DHT22;38340;52.964;6.086;2022-09-13T06:51:32;17.50;99.90
52415;DHT22;38340;52.964;6.086;2022-09-13T06:53:58;17.70;99.90
52415;DHT22;38340;52.964;6.086;2022-09-13T06:56:25;17.70;99.90
52415;DHT22;38340;52.964;6.086;2022-09-13T06:58:55;17.70;99.90
52415;DHT22;38340;52.964;6.086;2022-09-13T07:01:24;17.80;99.90
52415;DHT22;38340;52.964;6.086;2022-09-13T07:03:56;17.90;99.90
52415;DHT22;38340;52.964;6.086;2022-09-13T07:06:24;18.00;99.90
52415;DHT22;38340;52.964;6.086;2022-09-13T07:08:52;17.90;99.90
52415;DHT22;38340;52.964;6.086;2022-09-13T07:11:20;18.10;99.90
52415;DHT22;38340;52.964;6.086;2022-09-13T07:13:50;18.30;99.90
52415;DHT22;38340;52.964;6.086;2022-09-13T07:16:17;18.20;99.90
52415;DHT22;38340;52.964;6.086;2022-09-13T07:18:43;18.20;99.90
52415;DHT22;38340;52.964;6.086;2022-09-13T07:21:10;18.30;99.90
52415;DHT22;38340;52.964;6.086;2022-09-13T07:23:38;18.30;99.90
52415;DHT22;38340;52.964;6.086;2022-09-13T07:26:05;18.20;99.90
52415;DHT22;38340;52.964;6.086;2022-09-13T07:28:36;18.30;99.90
52415;DHT22;38340;52.964;6.086;2022-09-13T07:31:20;18.40;99.90
52415;DHT22;38340;52.964;6.086;2022-09-13T07:33:46;18.40;99.90
52415;DHT22;38340;52.964;6.086;2022-09-13T07:36:13;18.50;99.90
52415;DHT22;38340;52.964;6.086;2022-09-13T07:38:40;18.50;99.90
52415;DHT22;38340;52.964;6.086;2022-09-13T07:41:12;18.60;99.90
52415;DHT22;38340;52.964;6.086;2022-09-13T07:43:38;18.80;99.90
52415;DHT22;38340;52.964;6.086;2022-09-13T07:46:09;19.00;99.90
52415;DHT22;38340;52.964;6.086;2022-09-13T07:48:38;18.90;99.90
52415;DHT22;38340;52.964;6.086;2022-09-13T07:51:12;18.70;99.90
52415;DHT22;38340;52.964;6.086;2022-09-13T07:53:39;18.70;99.90
52415;DHT22;38340;52.964;6.086;2022-09-13T07:56:06;18.60;99.90
52415;DHT22;38340;52.964;6.086;2022-09-13T07:58:35;18.60;99.90
52415;DHT22;38340;52.964;6.086;2022-09-13T08:01:13;18.90;99.90
52415;DHT22;38340;52.964;6.086;2022-09-13T08:03:40;19.00;99.90
52415;DHT22;38340;52.964;6.086;2022-09-13T08:06:07;19.10;99.90
52415;DHT22;38340;52.964;6.086;2022-09-13T08:08:34;19.20;99.90
52415;DHT22;38340;52.964;6.086;2022-09-13T08:11:00;19.20;99.90
52415;DHT22;38340;52.964;6.086;2022-09-13T08:13:27;19.10;99.90
52415;DHT22;38340;52.964;6.086;2022-09-13T08:15:54;18.90;99.90
52415;DHT22;38340;52.964;6.086;2022-09-13T08:18:20;18.70;99.90
52415;DHT22;38340;52.964;6.086;2022-09-13T08:20:46;18.80;99.90
52415;DHT22;38340;52.964;6.086;2022-09-13T08:23:12;18.70;99.90
52415;DHT22;38340;52.964;6.086;2022-09-13T08:25:39;18.80;99.90
52415;DHT22;38340;52.964;6.086;2022-09-13T08:28:09;19.00;99.90
52415;DHT22;38340;52.964;6.086;2022-09-13T08:30:36;19.10;99.90
52415;DHT22;38340;52.964;6.086;2022-09-13T08:33:05;19.20;99.90
52415;DHT22;38340;52.964;6.086;2022-09-13T08:35:32;19.20;99.90
52415;DHT22;38340;52.964;6.086;2022-09-13T08:37:58;19.10;99.90
52415;DHT22;38340;52.964;6.086;2022-09-13T08:40:27;19.10;99.90
52415;DHT22;38340;52.964;6.086;2022-09-13T08:43:33;19.10;99.90
52415;DHT22;38340;52.964;6.086;2022-09-13T08:46:05;19.30;99.90
52415;DHT22;38340;52.964;6.086;2022-09-13T08:48:35;19.50;99.90
52415;DHT22;38340;52.964;6.086;2022-09-13T08:51:06;19.70;99.90
52415;DHT22;38340;52.964;6.086;2022-09-13T08:53:44;20.00;99.90
52415;DHT22;38340;52.964;6.086;2022-09-13T09:04:20;19.40;99.90
52415;DHT22;38340;52.964;6.086;2022-09-13T09:07:05;19.30;99.90
52415;DHT22;38340;52.964;6.086;2022-09-13T09:09:54;19.30;99.90
52415;DHT22;38340;52.964;6.086;2022-09-13T09:12:26;19.30;99.90
52415;DHT22;38340;52.964;6.086;2022-09-13T09:15:02;19.60;99.90
52415;DHT22;38340;52.964;6.086;2022-09-13T09:17:42;19.90;99.90
52415;DHT22;38340;52.964;6.086;2022-09-13T09:20:32;19.90;99.90
52415;DHT22;38340;52.964;6.086;2022-09-13T09:23:06;19.50;99.90
52415;DHT22;38340;52.964;6.086;2022-09-13T09:25:36;19.20;99.90
52415;DHT22;38340;52.964;6.086;2022-09-13T09:28:12;19.20;99.90
52415;DHT22;38340;52.964;6.086;2022-09-13T09:37:05;19.60;99.90
52415;DHT22;38340;52.964;6.086;2022-09-13T09:39:33;19.60;99.90
52415;DHT22;38340;52.964;6.086;2022-09-13T09:42:06;19.60;99.90
52415;DHT22;38340;52.964;6.086;2022-09-13T09:44:38;19.80;99.90
52415;DHT22;38340;52.964;6.086;2022-09-13T09:47:14;20.00;99.90
52415;DHT22;38340;52.964;6.086;2022-09-13T09:49:47;20.10;99.90
52415;DHT22;38340;52.964;6.086;2022-09-13T09:55:26;20.30;99.90
52415;DHT22;38340;52.964;6.086;2022-09-13T09:57:54;20.30;99.90
52415;DHT22;38340;52.964;6.086;2022-09-13T10:00:22;19.70;99.90
52415;DHT22;38340;52.964;6.086;2022-09-13T10:02:51;19.70;99.90
52415;DHT22;38340;52.964;6.086;2022-09-13T10:05:19;19.60;99.90
52415;DHT22;38340;52.964;6.086;2022-09-13T10:07:52;19.80;99.90
52415;DHT22;38340;52.964;6.086;2022-09-13T10:10:33;20.10;99.90
52415;DHT22;38340;52.964;6.086;2022-09-13T10:13:01;20.30;99.90
52415;DHT22;38340;52.964;6.086;2022-09-13T10:15:29;20.20;99.90
52415;DHT22;38340;52.964;6.086;2022-09-13T10:20:31;20.00;99.90
52415;DHT22;38340;52.964;6.086;2022-09-13T10:23:19;20.00;99.90
52415;DHT22;38340;52.964;6.086;2022-09-13T10:28:25;19.90;99.90
52415;DHT22;38340;52.964;6.086;2022-09-13T10:30:57;20.00;99.90
52415;DHT22;38340;52.964;6.086;2022-09-13T10:33:37;20.30;99.90
52415;DHT22;38340;52.964;6.086;2022-09-13T10:36:42;20.30;99.90
52415;DHT22;38340;52.964;6.086;2022-09-13T10:39:13;20.10;99.90
52415;DHT22;38340;52.964;6.086;2022-09-13T10:41:51;20.10;99.90
52415;DHT22;38340;52.964;6.086;2022-09-13T10:46:52;19.40;99.90
52415;DHT22;38340;52.964;6.086;2022-09-13T10:52:27;19.40;99.90
52415;DHT22;38340;52.964;6.086;2022-09-13T10:54:54;19.60;99.90
52415;DHT22;38340;52.964;6.086;2022-09-13T10:59:56;20.30;99.90
52415;DHT22;38340;52.964;6.086;2022-09-13T11:05:25;20.30;99.90
52415;DHT22;38340;52.964;6.086;2022-09-13T11:08:33;20.10;99.90
52415;DHT22;38340;52.964;6.086;2022-09-13T11:14:01;20.00;99.90
52415;DHT22;38340;52.964;6.086;2022-09-13T11:16:39;20.10;99.90
52415;DHT22;38340;52.964;6.086;2022-09-13T11:24:48;20.40;99.90
52415;DHT22;38340;52.964;6.086;2022-09-13T11:30:19;20.40;99.90
52415;DHT22;38340;52.964;6.086;2022-09-13T11:33:10;20.40;99.90
52415;DHT22;38340;52.964;6.086;2022-09-13T11:38:37;20.50;99.90
52415;DHT22;38340;52.964;6.086;2022-09-13T11:55:02;20.50;99.90
52415;DHT22;38340;52.964;6.086;2022-09-13T11:57:36;20.40;99.90
52415;DHT22;38340;52.964;6.086;2022-09-13T12:00:18;20.40;99.90
52415;DHT22;38340;52.964;6.086;2022-09-13T12:05:21;20.30;99.90
52415;DHT22;38340;52.964;6.086;2022-09-13T12:10:57;20.50;99.90
52415;DHT22;38340;52.964;6.086;2022-09-13T12:13:30;20.60;99.90
52415;DHT22;38340;52.964;6.086;2022-09-13T12:16:07;20.70;99.90
52415;DHT22;38340;52.964;6.086;2022-09-13T12:18:46;20.70;99.90
52415;DHT22;38340;52.964;6.086;2022-09-13T12:21:20;20.60;99.90
52415;DHT22;38340;52.964;6.086;2022-09-13T12:26:23;20.40;99.90
52415;DHT22;38340;52.964;6.086;2022-09-13T12:28:55;20.40;99.90
52415;DHT22;38340;52.964;6.086;2022-09-13T12:31:25;20.30;99.90
52415;DHT22;38340;52.964;6.086;2022-09-13T12:33:52;20.40;99.90
52415;DHT22;38340;52.964;6.086;2022-09-13T12:45:29;20.80;99.90
52415;DHT22;38340;52.964;6.086;2022-09-13T12:58:51;20.70;99.90
52415;DHT22;38340;52.964;6.086;2022-09-13T13:01:27;20.50;99.90
52415;DHT22;38340;52.964;6.086;2022-09-13T13:04:02;20.50;99.90
52415;DHT22;38340;52.964;6.086;2022-09-13T13:11:54;20.60;99.90
52415;DHT22;38340;52.964;6.086;2022-09-13T13:14:43;20.70;99.90
52415;DHT22;38340;52.964;6.086;2022-09-13T13:17:47;20.70;99.90
52415;DHT22;38340;52.964;6.086;2022-09-13T13:23:38;20.70;99.90
52415;DHT22;38340;52.964;6.086;2022-09-13T13:26:06;20.60;99.90
52415;DHT22;38340;52.964;6.086;2022-09-13T13:57:26;20.20;99.90
52415;DHT22;38340;52.964;6.086;2022-09-13T14:08:33;20.10;99.90
52415;DHT22;38340;52.964;6.086;2022-09-13T14:14:02;20.30;99.90
52415;DHT22;38340;52.964;6.086;2022-09-13T14:17:15;20.60;99.90
52415;DHT22;38340;52.964;6.086;2022-09-13T14:19:48;20.60;99.90
52415;DHT22;38340;52.964;6.086;2022-09-13T14:22:18;20.70;99.90
52415;DHT22;38340;52.964;6.086;2022-09-13T14:24:45;20.70;99.90
52415;DHT22;38340;52.964;6.086;2022-09-13T14:27:19;20.70;99.90
52415;DHT22;38340;52.964;6.086;2022-09-13T14:29:48;20.70;99.90
52415;DHT22;38340;52.964;6.086;2022-09-13T14:32:18;20.60;99.90
52415;DHT22;38340;52.964;6.086;2022-09-13T14:34:59;20.40;99.90
52415;DHT22;38340;52.964;6.086;2022-09-13T14:37:37;20.20;99.90
52415;DHT22;38340;52.964;6.086;2022-09-13T14:40:21;20.20;99.90
52415;DHT22;38340;52.964;6.086;2022-09-13T14:42:49;20.10;99.90
52415;DHT22;38340;52.964;6.086;2022-09-13T14:45:30;20.00;99.90
52415;DHT22;38340;52.964;6.086;2022-09-13T14:48:09;20.10;99.90
52415;DHT22;38340;52.964;6.086;2022-09-13T14:50:40;20.30;99.90
52415;DHT22;38340;52.964;6.086;2022-09-13T14:53:17;20.30;99.90
52415;DHT22;38340;52.964;6.086;2022-09-13T14:55:52;20.40;99.90
52415;DHT22;38340;52.964;6.086;2022-09-13T14:58:29;20.40;99.90
52415;DHT22;38340;52.964;6.086;2022-09-13T15:01:01;20.40;99.90
52415;DHT22;38340;52.964;6.086;2022-09-13T15:03:28;20.50;99.90
52415;DHT22;38340;52.964;6.086;2022-09-13T15:05:56;20.20;99.90
52415;DHT22;38340;52.964;6.086;2022-09-13T15:11:01;20.00;99.90
52415;DHT22;38340;52.964;6.086;2022-09-13T15:13:27;19.80;99.90
52415;DHT22;38340;52.964;6.086;2022-09-13T15:15:53;19.80;99.90
52415;DHT22;38340;52.964;6.086;2022-09-13T15:20:57;19.80;99.90
52415;DHT22;38340;52.964;6.086;2022-09-13T15:23:32;19.70;99.90
52415;DHT22;38340;52.964;6.086;2022-09-13T15:31:24;19.50;99.90
52415;DHT22;38340;52.964;6.086;2022-09-13T15:34:09;19.40;99.90
52415;DHT22;38340;52.964;6.086;2022-09-13T15:36:35;19.20;99.90
52415;DHT22;38340;52.964;6.086;2022-09-13T15:41:38;19.00;99.90
52415;DHT22;38340;52.964;6.086;2022-09-13T15:44:06;18.80;99.90
52415;DHT22;38340;52.964;6.086;2022-09-13T15:46:36;18.80;99.90
52415;DHT22;38340;52.964;6.086;2022-09-13T15:49:04;18.80;99.90
52415;DHT22;38340;52.964;6.086;2022-09-13T15:51:30;18.80;99.90
52415;DHT22;38340;52.964;6.086;2022-09-13T15:53:57;18.70;99.90
52415;DHT22;38340;52.964;6.086;2022-09-13T15:56:30;18.60;99.90
52415;DHT22;38340;52.964;6.086;2022-09-13T15:58:57;18.70;99.90
52415;DHT22;38340;52.964;6.086;2022-09-13T16:01:22;18.70;99.90
52415;DHT22;38340;52.964;6.086;2022-09-13T16:03:48;18.70;99.90
52415;DHT22;38340;52.964;6.086;2022-09-13T16:06:14;18.70;99.90
52415;DHT22;38340;52.964;6.086;2022-09-13T16:08:40;18.80;99.90
52415;DHT22;38340;52.964;6.086;2022-09-13T16:11:06;18.80;99.90
52415;DHT22;38340;52.964;6.086;2022-09-13T16:13:32;18.90;99.90
52415;DHT22;38340;52.964;6.086;2022-09-13T16:15:58;18.90;99.90
52415;DHT22;38340;52.964;6.086;2022-09-13T16:18:24;18.70;99.90
52415;DHT22;38340;52.964;6.086;2022-09-13T16:20:50;18.70;99.90
52415;DHT22;38340;52.964;6.086;2022-09-13T16:23:16;18.60;99.90
52415;DHT22;38340;52.964;6.086;2022-09-13T16:25:41;18.50;99.90
52415;DHT22;38340;52.964;6.086;2022-09-13T16:28:09;18.40;99.90
52415;DHT22;38340;52.964;6.086;2022-09-13T16:30:37;18.40;99.90
52415;DHT22;38340;52.964;6.086;2022-09-13T16:33:03;18.30;99.90
52415;DHT22;38340;52.964;6.086;2022-09-13T16:35:29;18.20;99.90
52415;DHT22;38340;52.964;6.086;2022-09-13T16:37:56;18.10;99.90
52415;DHT22;38340;52.964;6.086;2022-09-13T16:40:22;18.00;99.90
52415;DHT22;38340;52.964;6.086;2022-09-13T16:42:49;17.90;99.90
52415;DHT22;38340;52.964;6.086;2022-09-13T16:45:15;17.90;99.90
52415;DHT22;38340;52.964;6.086;2022-09-13T16:47:41;17.70;99.90
52415;DHT22;38340;52.964;6.086;2022-09-13T16:50:07;17.60;99.90
52415;DHT22;38340;52.964;6.086;2022-09-13T16:52:33;17.50;99.90
52415;DHT22;38340;52.964;6.086;2022-09-13T16:55:00;17.50;99.90
52415;DHT22;38340;52.964;6.086;2022-09-13T16:57:26;17.40;99.90
52415;DHT22;38340;52.964;6.086;2022-09-13T16:59:52;17.30;99.90
52415;DHT22;38340;52.964;6.086;2022-09-13T17:02:21;17.30;99.90
52415;DHT22;38340;52.964;6.086;2022-09-13T17:04:47;17.30;99.90
52415;DHT22;38340;52.964;6.086;2022-09-13T17:07:13;17.20;99.90
52415;DHT22;38340;52.964;6.086;2022-09-13T17:09:39;17.20;99.90
52415;DHT22;38340;52.964;6.086;2022-09-13T17:12:07;17.20;99.90
52415;DHT22;38340;52.964;6.086;2022-09-13T17:14:33;17.10;99.90
52415;DHT22;38340;52.964;6.086;2022-09-13T17:16:59;17.10;99.90
52415;DHT22;38340;52.964;6.086;2022-09-13T17:19:28;17.00;99.90
52415;DHT22;38340;52.964;6.086;2022-09-13T17:22:02;17.00;99.90
52415;DHT22;38340;52.964;6.086;2022-09-13T17:24:29;16.90;99.90
52415;DHT22;38340;52.964;6.086;2022-09-13T17:26:56;16.90;99.90
52415;DHT22;38340;52.964;6.086;2022-09-13T17:29:23;16.90;99.90
52415;DHT22;38340;52.964;6.086;2022-09-13T17:31:50;16.80;99.90
52415;DHT22;38340;52.964;6.086;2022-09-13T17:34:16;16.70;99.90
52415;DHT22;38340;52.964;6.086;2022-09-13T17:36:42;16.60;99.90
52415;DHT22;38340;52.964;6.086;2022-09-13T17:39:08;16.60;99.90
52415;DHT22;38340;52.964;6.086;2022-09-13T17:41:34;16.50;99.90
52415;DHT22;38340;52.964;6.086;2022-09-13T17:44:01;16.50;99.90
52415;DHT22;38340;52.964;6.086;2022-09-13T17:46:28;16.40;99.90
52415;DHT22;38340;52.964;6.086;2022-09-13T17:48:56;16.30;99.90
52415;DHT22;38340;52.964;6.086;2022-09-13T17:51:28;16.30;99.90
52415;DHT22;38340;52.964;6.086;2022-09-13T17:53:55;16.20;99.90
52415;DHT22;38340;52.964;6.086;2022-09-13T17:56:31;16.10;99.90
52415;DHT22;38340;52.964;6.086;2022-09-13T17:59:12;16.10;99.90
52415;DHT22;38340;52.964;6.086;2022-09-13T18:01:44;16.00;99.90
52415;DHT22;38340;52.964;6.086;2022-09-13T18:04:11;15.90;99.90
52415;DHT22;38340;52.964;6.086;2022-09-13T18:06:37;15.80;99.90
52415;DHT22;38340;52.964;6.086;2022-09-13T18:09:05;15.80;99.90
52415;DHT22;38340;52.964;6.086;2022-09-13T18:11:31;15.60;99.90
52415;DHT22;38340;52.964;6.086;2022-09-13T18:13:57;15.50;99.90
52415;DHT22;38340;52.964;6.086;2022-09-13T18:16:25;15.40;99.90
52415;DHT22;38340;52.964;6.086;2022-09-13T18:18:52;15.40;99.90
52415;DHT22;38340;52.964;6.086;2022-09-13T18:21:19;15.30;99.90
52415;DHT22;38340;52.964;6.086;2022-09-13T18:23:51;15.20;99.90
52415;DHT22;38340;52.964;6.086;2022-09-13T18:26:19;15.20;99.90
52415;DHT22;38340;52.964;6.086;2022-09-13T18:28:46;15.10;99.90
52415;DHT22;38340;52.964;6.086;2022-09-13T18:31:17;15.10;99.90
52415;DHT22;38340;52.964;6.086;2022-09-13T18:33:43;15.10;99.90
52415;DHT22;38340;52.964;6.086;2022-09-13T18:36:12;15.10;99.90
52415;DHT22;38340;52.964;6.086;2022-09-13T18:38:43;15.10;99.90
52415;DHT22;38340;52.964;6.086;2022-09-13T18:41:12;15.20;99.90
52415;DHT22;38340;52.964;6.086;2022-09-13T18:43:40;15.10;99.90
52415;DHT22;38340;52.964;6.086;2022-09-13T18:46:11;15.00;99.90
52415;DHT22;38340;52.964;6.086;2022-09-13T18:48:40;15.00;99.90
52415;DHT22;38340;52.964;6.086;2022-09-13T18:51:11;15.00;99.90
52415;DHT22;38340;52.964;6.086;2022-09-13T18:53:38;14.90;99.90
52415;DHT22;38340;52.964;6.086;2022-09-13T18:56:07;14.80;99.90
52415;DHT22;38340;52.964;6.086;2022-09-13T18:58:36;14.80;99.90
52415;DHT22;38340;52.964;6.086;2022-09-13T19:01:07;14.70;99.90
52415;DHT22;38340;52.964;6.086;2022-09-13T19:03:34;14.60;99.90
52415;DHT22;38340;52.964;6.086;2022-09-13T19:06:09;14.60;99.90
52415;DHT22;38340;52.964;6.086;2022-09-13T19:08:35;14.50;99.90
52415;DHT22;38340;52.964;6.086;2022-09-13T19:11:02;14.50;99.90
52415;DHT22;38340;52.964;6.086;2022-09-13T19:13:28;14.40;99.90
52415;DHT22;38340;52.964;6.086;2022-09-13T19:15:58;14.40;99.90
52415;DHT22;38340;52.964;6.086;2022-09-13T19:18:24;14.30;99.90
52415;DHT22;38340;52.964;6.086;2022-09-13T19:20:50;14.30;99.90
52415;DHT22;38340;52.964;6.086;2022-09-13T19:23:16;14.20;99.90